Time;durP1;ratioP1;P1;durP2;ratioP2;P2;SDS_P1;SDS_P2;PMS_P1;PMS_P2;Temp;Humidity;BMP_temperature;BMP_pressure;BME280_temperature;BME280_humidity;BME280_pressure;Samples;Min_cycle;Max_cycle;Signal;HPM_P1;HPM_P2
2021/01/30 00:00:44;;;;;;;5.53;3.80;;;5.30;99.90;;;;;;5019228;28;20205;-74
2021/01/30 00:03:12;;;;;;;7.60;4.20;;;5.20;99.90;;;;;;5014259;28;20240;-78
2021/01/30 00:05:39;;;;;;;7.57;3.93;;;5.40;99.90;;;;;;5005166;28;20229;-76
2021/01/30 00:08:11;;;;;;;11.83;4.57;;;5.20;99.90;;;;;;5004116;28;20649;-76
2021/01/30 00:10:37;;;;;;;7.83;3.40;;;5.10;99.90;;;;;;5003381;28;20576;-77
2021/01/30 00:13:05;;;;;;;7.70;4.90;;;5.00;99.90;;;;;;5020424;28;20241;-76
2021/01/30 00:15:33;;;;;;;9.80;4.17;;;4.90;99.90;;;;;;5032798;28;20263;-77
2021/01/30 00:17:59;;;;;;;6.60;3.43;;;5.00;99.90;;;;;;5014599;28;20664;-77
2021/01/30 00:20:30;;;;;;;6.70;3.43;;;5.00;99.90;;;;;;5007510;28;20669;-77
2021/01/30 00:22:57;;;;;;;8.13;3.23;;;5.10;99.90;;;;;;5021328;28;20300;-77
2021/01/30 00:25:26;;;;;;;7.97;4.33;;;4.90;99.90;;;;;;5015484;28;20197;-77
2021/01/30 00:27:53;;;;;;;5.27;3.30;;;5.10;99.90;;;;;;5017453;28;20212;-77
2021/01/30 00:30:22;;;;;;;3.03;2.70;;;5.10;99.90;;;;;;5019072;28;20201;-77
2021/01/30 00:32:49;;;;;;;5.27;2.90;;;4.70;99.90;;;;;;5013095;28;20200;-78
2021/01/30 00:35:19;;;;;;;2.27;2.07;;;4.50;99.90;;;;;;5034609;28;20201;-77
2021/01/30 00:37:45;;;;;;;3.30;2.60;;;4.60;99.90;;;;;;5017170;28;20226;-77
2021/01/30 00:40:12;;;;;;;5.53;3.13;;;4.60;99.90;;;;;;5017498;28;20634;-77
2021/01/30 00:42:39;;;;;;;3.70;2.30;;;4.40;99.90;;;;;;5004969;28;20692;-77
2021/01/30 00:45:07;;;;;;;8.87;2.83;;;4.50;99.90;;;;;;5018039;28;20204;-77
2021/01/30 00:47:34;;;;;;;3.43;2.53;;;4.40;99.90;;;;;;5017184;28;20236;-77
2021/01/30 00:50:01;;;;;;;6.33;2.87;;;4.40;99.90;;;;;;5007900;28;20213;-77
2021/01/30 00:52:27;;;;;;;2.67;1.87;;;4.60;99.90;;;;;;5008611;28;20208;-77
2021/01/30 00:54:54;;;;;;;4.00;1.73;;;4.70;99.90;;;;;;5016149;28;20200;-77
2021/01/30 00:57:20;;;;;;;1.97;1.60;;;4.70;99.90;;;;;;5014614;28;20301;-76
2021/01/30 00:59:47;;;;;;;4.43;1.93;;;4.30;99.90;;;;;;5007345;28;20275;-76
2021/01/30 01:02:14;;;;;;;2.37;1.90;;;4.30;99.90;;;;;;5020425;28;20218;-75
2021/01/30 01:04:43;;;;;;;4.67;2.03;;;4.30;99.90;;;;;;5009768;28;20207;-75
2021/01/30 01:07:10;;;;;;;3.73;1.90;;;4.40;99.90;;;;;;5020031;28;20254;-76
2021/01/30 01:09:36;;;;;;;10.43;2.70;;;4.30;99.90;;;;;;5017520;28;20213;-75
2021/01/30 01:12:03;;;;;;;3.37;1.87;;;4.10;99.90;;;;;;5006334;28;20275;-74
2021/01/30 01:14:29;;;;;;;4.17;2.10;;;4.20;99.90;;;;;;5007246;28;20266;-75
2021/01/30 01:16:56;;;;;;;3.83;2.53;;;4.10;99.90;;;;;;5012322;28;20280;-74
2021/01/30 01:19:22;;;;;;;4.47;2.00;;;4.30;99.90;;;;;;5000975;28;20408;-76
2021/01/30 01:21:50;;;;;;;5.13;2.30;;;4.20;99.90;;;;;;5022643;28;20207;-76
2021/01/30 01:24:17;;;;;;;4.33;2.47;;;4.40;99.90;;;;;;5015392;28;21727;-74
2021/01/30 01:26:45;;;;;;;2.77;2.00;;;4.40;99.90;;;;;;5009844;28;20617;-74
2021/01/30 01:29:14;;;;;;;3.33;2.23;;;4.40;99.90;;;;;;5019706;28;20624;-75
2021/01/30 01:31:41;;;;;;;2.23;1.87;;;4.50;99.90;;;;;;5017642;28;20227;-76
2021/01/30 01:34:08;;;;;;;5.37;2.27;;;4.30;99.90;;;;;;5005053;28;20310;-75
2021/01/30 01:36:34;;;;;;;1.87;1.60;;;4.20;99.90;;;;;;5015815;28;20201;-75
2021/01/30 01:39:01;;;;;;;2.80;1.93;;;4.20;99.90;;;;;;5006593;28;20600;-75
2021/01/30 01:41:28;;;;;;;2.40;2.00;;;4.40;99.90;;;;;;5023558;28;20569;-74
2021/01/30 01:43:54;;;;;;;3.10;2.40;;;4.40;99.90;;;;;;5017878;28;20215;-77
2021/01/30 01:46:24;;;;;;;3.33;1.90;;;4.20;99.90;;;;;;5006846;28;20193;-75
2021/01/30 01:49:06;;;;;;;3.13;2.10;;;4.30;99.90;;;;;;5031489;28;20288;-75
2021/01/30 01:51:37;;;;;;;4.07;2.30;;;4.30;99.90;;;;;;5035353;28;20281;-77
2021/01/30 01:54:08;;;;;;;2.40;2.00;;;4.00;99.90;;;;;;5032269;28;20229;-74
2021/01/30 01:56:37;;;;;;;3.07;2.10;;;3.90;99.90;;;;;;5021776;28;20364;-74
2021/01/30 01:59:16;;;;;;;3.93;1.97;;;3.70;99.90;;;;;;5014850;28;20201;-76
2021/01/30 02:01:43;;;;;;;2.60;2.40;;;3.70;99.90;;;;;;5022102;28;20261;-75
2021/01/30 02:04:12;;;;;;;3.13;2.83;;;3.70;99.90;;;;;;5008157;28;20209;-77
2021/01/30 02:06:42;;;;;;;2.47;2.27;;;3.70;99.90;;;;;;5032514;28;20567;-75
2021/01/30 02:09:12;;;;;;;2.83;2.33;;;4.00;99.90;;;;;;5017141;28;20275;-74
2021/01/30 02:11:39;;;;;;;3.90;2.67;;;3.90;99.90;;;;;;5018719;28;20248;-75
2021/01/30 02:14:08;;;;;;;3.67;2.70;;;3.80;99.90;;;;;;5017626;28;20491;-75
2021/01/30 02:16:47;;;;;;;2.93;2.63;;;3.80;99.90;;;;;;5015916;28;20216;-76
2021/01/30 02:19:33;;;;;;;3.00;2.70;;;4.00;99.90;;;;;;5024010;28;20601;-76
2021/01/30 02:22:23;;;;;;;4.73;3.53;;;3.70;99.90;;;;;;5032886;28;20314;-75
2021/01/30 02:25:40;;;;;;;4.37;3.50;;;3.80;99.90;;;;;;5016977;28;20292;-75
2021/01/30 02:28:44;;;;;;;4.43;2.83;;;3.80;99.90;;;;;;5028042;28;20310;-74
2021/01/30 02:31:38;;;;;;;4.07;3.10;;;3.80;99.90;;;;;;5036319;28;20684;-75
2021/01/30 02:34:42;;;;;;;4.00;3.50;;;3.80;99.90;;;;;;5018535;28;20294;-75
2021/01/30 02:37:18;;;;;;;4.27;3.87;;;3.70;99.90;;;;;;5013453;28;20203;-75
2021/01/30 02:39:57;;;;;;;5.50;4.50;;;3.40;99.90;;;;;;5020032;28;20189;-75
2021/01/30 02:42:44;;;;;;;7.27;5.13;;;3.30;99.90;;;;;;5016292;28;20205;-75
2021/01/30 02:45:21;;;;;;;6.13;4.87;;;3.20;99.90;;;;;;5018370;28;20232;-77
2021/01/30 02:47:56;;;;;;;7.23;5.70;;;3.20;99.90;;;;;;5020390;28;20204;-78
2021/01/30 02:50:29;;;;;;;7.63;6.27;;;3.20;99.90;;;;;;5018462;28;20253;-75
2021/01/30 02:53:00;;;;;;;6.83;5.63;;;3.40;99.90;;;;;;5022017;28;20257;-76
2021/01/30 02:55:28;;;;;;;7.53;5.90;;;3.30;99.90;;;;;;5010950;28;20212;-75
2021/01/30 02:57:56;;;;;;;7.20;5.43;;;3.10;99.90;;;;;;5001574;28;20484;-76
2021/01/30 03:00:25;;;;;;;6.43;5.47;;;2.90;99.90;;;;;;5017942;28;20264;-76
2021/01/30 03:02:53;;;;;;;6.90;5.43;;;2.90;99.90;;;;;;5018946;28;20199;-75
2021/01/30 03:05:20;;;;;;;7.03;5.40;;;3.00;99.90;;;;;;5015394;28;20197;-74
2021/01/30 03:07:56;;;;;;;7.40;5.50;;;3.00;99.90;;;;;;5017904;28;20262;-75
2021/01/30 03:10:41;;;;;;;11.13;6.83;;;3.10;99.90;;;;;;5021556;28;20211;-75
2021/01/30 03:13:16;;;;;;;6.87;5.70;;;3.00;99.90;;;;;;5016995;28;20212;-75
2021/01/30 03:15:49;;;;;;;8.13;6.17;;;3.00;99.90;;;;;;5014546;28;20607;-75
2021/01/30 03:18:21;;;;;;;8.67;6.23;;;3.00;99.90;;;;;;5019707;28;20194;-76
2021/01/30 03:20:47;;;;;;;8.77;6.57;;;2.80;99.90;;;;;;5015096;28;20223;-75
2021/01/30 03:23:17;;;;;;;9.13;6.20;;;3.00;99.90;;;;;;5003840;28;20194;-75
2021/01/30 03:25:45;;;;;;;10.90;7.10;;;2.90;99.90;;;;;;5015931;28;20267;-75
2021/01/30 03:28:12;;;;;;;9.07;5.90;;;2.80;99.90;;;;;;5051104;28;20290;-75
2021/01/30 03:30:39;;;;;;;11.87;7.27;;;2.70;99.90;;;;;;5018037;28;20235;-73
2021/01/30 03:33:07;;;;;;;13.07;7.90;;;2.80;99.90;;;;;;5007006;28;20198;-75
2021/01/30 03:35:34;;;;;;;9.93;7.10;;;2.90;99.90;;;;;;5015396;28;20257;-76
2021/01/30 03:38:01;;;;;;;9.17;6.80;;;2.80;99.90;;;;;;5003417;28;20288;-75
2021/01/30 03:40:28;;;;;;;11.80;8.40;;;2.60;99.90;;;;;;5014473;28;20228;-75
2021/01/30 03:42:59;;;;;;;11.23;8.03;;;2.90;99.90;;;;;;5014711;28;20213;-74
2021/01/30 03:45:28;;;;;;;13.03;8.37;;;2.90;99.90;;;;;;5003242;28;20204;-74
2021/01/30 03:47:55;;;;;;;9.93;7.53;;;3.00;99.90;;;;;;5021363;28;20210;-75
2021/01/30 03:50:22;;;;;;;12.27;7.80;;;2.90;99.90;;;;;;5032801;28;20622;-74
2021/01/30 03:52:49;;;;;;;9.17;6.73;;;3.00;99.90;;;;;;5019981;28;20323;-74
2021/01/30 03:55:16;;;;;;;12.07;8.63;;;2.90;99.90;;;;;;5015993;28;20683;-75
2021/01/30 03:57:44;;;;;;;9.23;6.80;;;3.00;99.90;;;;;;5009141;28;20288;-75
2021/01/30 04:00:17;;;;;;;9.73;7.33;;;2.80;99.90;;;;;;5017895;28;20201;-74
2021/01/30 04:02:43;;;;;;;9.17;7.10;;;2.90;99.90;;;;;;5033412;28;20694;-74
2021/01/30 04:05:16;;;;;;;10.83;6.90;;;2.90;99.90;;;;;;5004089;28;20299;-74
2021/01/30 04:07:44;;;;;;;9.13;6.30;;;2.80;99.90;;;;;;5021606;28;20199;-74
2021/01/30 04:10:16;;;;;;;6.80;5.60;;;2.80;99.90;;;;;;5019402;28;20277;-75
2021/01/30 04:12:42;;;;;;;9.07;6.47;;;2.70;99.90;;;;;;5014174;28;20265;-74
2021/01/30 04:15:13;;;;;;;8.13;6.40;;;2.70;99.90;;;;;;5009236;28;20258;-74
2021/01/30 04:17:39;;;;;;;8.57;5.97;;;2.70;99.90;;;;;;5010110;28;20198;-75
2021/01/30 04:20:06;;;;;;;8.90;5.63;;;3.00;99.90;;;;;;5003077;28;20286;-75
2021/01/30 04:22:33;;;;;;;7.53;5.80;;;2.90;99.90;;;;;;5013289;28;20211;-75
2021/01/30 04:24:59;;;;;;;6.27;5.43;;;2.70;99.90;;;;;;5004948;28;20209;-76
2021/01/30 04:27:25;;;;;;;7.23;5.90;;;2.80;99.90;;;;;;5016927;28;20607;-75
2021/01/30 04:29:52;;;;;;;7.43;5.97;;;2.70;99.90;;;;;;5014433;28;20283;-75
2021/01/30 04:32:20;;;;;;;8.20;5.37;;;2.60;99.90;;;;;;5008121;28;20219;-75
2021/01/30 04:34:47;;;;;;;8.23;5.93;;;2.50;99.90;;;;;;5006106;28;20620;-75
2021/01/30 04:37:13;;;;;;;8.93;5.57;;;2.50;99.90;;;;;;5009401;28;20225;-75
2021/01/30 04:39:39;;;;;;;7.00;5.67;;;2.50;99.90;;;;;;5005083;28;20202;-74
2021/01/30 04:42:15;;;;;;;8.90;6.07;;;2.70;99.90;;;;;;5007760;28;20276;-76
2021/01/30 04:44:56;;;;;;;7.10;5.83;;;2.60;99.90;;;;;;5017044;28;20203;-75
2021/01/30 04:47:43;;;;;;;6.17;5.10;;;2.60;99.90;;;;;;5031295;28;20211;-74
2021/01/30 04:50:30;;;;;;;7.00;5.50;;;2.60;99.90;;;;;;5029866;28;20212;-75
2021/01/30 04:53:12;;;;;;;7.70;5.10;;;2.70;99.90;;;;;;5014972;28;20733;-76
2021/01/30 04:55:44;;;;;;;5.20;4.37;;;2.80;99.90;;;;;;5016362;28;20582;-77
2021/01/30 04:58:34;;;;;;;6.57;5.13;;;2.70;99.90;;;;;;5016572;28;20458;-75
2021/01/30 05:01:06;;;;;;;6.60;4.83;;;2.70;99.90;;;;;;5026294;28;20267;-76
2021/01/30 05:03:45;;;;;;;7.03;5.20;;;2.50;99.90;;;;;;5021412;28;20237;-75
2021/01/30 05:06:34;;;;;;;8.53;6.27;;;2.60;99.90;;;;;;5016206;28;20276;-74
2021/01/30 05:09:09;;;;;;;7.97;5.83;;;2.40;99.90;;;;;;5006820;28;20614;-75
2021/01/30 05:11:38;;;;;;;7.57;5.07;;;2.40;99.90;;;;;;5015312;28;20297;-75
2021/01/30 05:14:13;;;;;;;7.40;5.53;;;2.50;99.90;;;;;;5016642;28;20196;-75
2021/01/30 05:16:59;;;;;;;7.90;6.40;;;2.20;99.90;;;;;;5019409;28;20339;-75
2021/01/30 05:19:31;;;;;;;8.20;5.60;;;2.40;99.90;;;;;;5011106;28;20312;-76
2021/01/30 05:22:01;;;;;;;8.97;6.13;;;2.50;99.90;;;;;;5017996;28;20678;-75
2021/01/30 05:24:29;;;;;;;6.50;5.23;;;2.50;99.90;;;;;;5020231;28;20208;-75
2021/01/30 05:27:13;;;;;;;8.33;5.67;;;2.50;99.90;;;;;;5013404;28;20292;-74
2021/01/30 05:30:35;;;;;;;8.80;5.87;;;2.40;99.90;;;;;;5017530;28;20283;-75
2021/01/30 05:33:16;;;;;;;8.30;5.50;;;2.40;99.90;;;;;;4952100;28;20222;-75
2021/01/30 05:36:00;;;;;;;7.27;5.60;;;2.30;99.90;;;;;;5038232;28;20276;-77
2021/01/30 05:38:32;;;;;;;9.27;5.90;;;2.20;99.90;;;;;;5015365;28;20205;-75
2021/01/30 05:41:19;;;;;;;8.07;5.20;;;2.40;99.90;;;;;;5019071;28;20193;-74
2021/01/30 05:43:55;;;;;;;6.33;5.63;;;2.50;99.90;;;;;;5018925;28;22415;-76
2021/01/30 05:46:28;;;;;;;7.87;5.57;;;2.40;99.90;;;;;;5020008;28;20208;-74
2021/01/30 05:49:02;;;;;;;8.17;5.60;;;2.20;99.90;;;;;;5022486;28;20221;-78
2021/01/30 05:51:28;;;;;;;7.10;4.93;;;2.20;99.90;;;;;;5048163;28;20268;-75
2021/01/30 05:53:55;;;;;;;6.90;5.43;;;2.40;99.90;;;;;;5016966;28;20216;-77
2021/01/30 05:56:21;;;;;;;6.67;5.07;;;2.30;99.90;;;;;;5021998;28;20342;-75
2021/01/30 05:58:48;;;;;;;6.10;4.57;;;2.20;99.90;;;;;;5013640;28;20275;-74
2021/01/30 06:01:28;;;;;;;6.33;4.63;;;2.00;99.90;;;;;;5018969;28;20279;-74
2021/01/30 06:04:09;;;;;;;5.07;4.50;;;1.80;99.90;;;;;;5018530;28;20207;-75
2021/01/30 06:06:40;;;;;;;8.30;5.30;;;1.80;99.90;;;;;;5019387;28;20540;-75
2021/01/30 06:09:30;;;;;;;6.73;4.90;;;1.80;99.90;;;;;;5012813;28;20277;-75
2021/01/30 06:11:56;;;;;;;7.60;5.60;;;1.90;99.90;;;;;;5020626;28;20672;-75
2021/01/30 06:14:40;;;;;;;8.90;5.43;;;2.00;99.90;;;;;;5020840;28;20201;-75
2021/01/30 06:17:21;;;;;;;7.93;5.40;;;2.00;99.90;;;;;;5004866;28;20303;-77
2021/01/30 06:20:21;;;;;;;9.70;5.60;;;1.90;99.90;;;;;;5017599;28;20292;-75
2021/01/30 06:23:09;;;;;;;7.23;5.20;;;1.70;99.90;;;;;;5019360;28;20311;-76
2021/01/30 06:25:37;;;;;;;7.20;4.73;;;1.80;99.90;;;;;;5017465;28;20275;-76
2021/01/30 06:28:21;;;;;;;7.43;5.43;;;1.70;99.90;;;;;;5030921;28;20292;-75
2021/01/30 06:30:49;;;;;;;8.30;5.23;;;1.80;99.90;;;;;;5015281;28;20691;-74
2021/01/30 06:33:49;;;;;;;7.70;5.27;;;1.80;99.90;;;;;;5021207;28;20285;-75
2021/01/30 06:36:24;;;;;;;8.17;5.30;;;1.70;99.90;;;;;;5023562;28;20250;-75
2021/01/30 06:39:09;;;;;;;9.23;5.23;;;1.70;99.90;;;;;;5017935;28;20674;-75
2021/01/30 06:41:36;;;;;;;7.53;5.40;;;1.70;99.90;;;;;;5017450;28;20203;-75
2021/01/30 06:44:27;;;;;;;8.10;5.40;;;1.70;99.90;;;;;;5032889;28;20491;-77
2021/01/30 06:47:12;;;;;;;7.40;5.30;;;1.80;99.90;;;;;;5015320;28;21034;-76
2021/01/30 06:49:47;;;;;;;8.37;5.57;;;2.00;99.90;;;;;;5019045;28;20205;-76
2021/01/30 06:52:23;;;;;;;6.33;5.00;;;1.80;99.90;;;;;;5020065;28;20298;-76
2021/01/30 06:55:05;;;;;;;7.73;4.73;;;2.00;99.90;;;;;;5014650;28;20275;-77
2021/01/30 06:57:36;;;;;;;6.40;4.67;;;2.10;99.90;;;;;;5031426;28;20209;-75
2021/01/30 07:00:02;;;;;;;6.53;4.63;;;1.80;99.90;;;;;;5016677;28;20348;-75
2021/01/30 07:02:38;;;;;;;7.43;5.33;;;1.80;99.90;;;;;;5017236;28;20215;-76
2021/01/30 07:05:19;;;;;;;6.53;4.70;;;1.70;99.90;;;;;;5019579;28;20217;-76
2021/01/30 07:07:51;;;;;;;5.47;4.17;;;1.70;99.90;;;;;;5019676;28;21109;-75
2021/01/30 07:10:24;;;;;;;5.80;4.17;;;1.80;99.90;;;;;;5015661;28;20208;-74
2021/01/30 07:13:18;;;;;;;5.67;4.27;;;1.70;99.90;;;;;;5016043;28;20238;-76
2021/01/30 07:16:00;;;;;;;5.70;4.10;;;1.70;99.90;;;;;;5021165;28;20193;-76
2021/01/30 07:18:32;;;;;;;7.50;4.17;;;1.90;99.90;;;;;;5030874;28;20197;-76
2021/01/30 07:21:35;;;;;;;6.80;3.93;;;1.80;99.90;;;;;;5013327;28;20283;-77
2021/01/30 07:24:42;;;;;;;5.07;3.93;;;1.90;99.90;;;;;;5009391;28;20239;-77
2021/01/30 07:27:24;;;;;;;5.33;3.50;;;1.80;99.90;;;;;;5020005;28;20205;-78
2021/01/30 07:30:11;;;;;;;4.03;3.57;;;1.90;99.90;;;;;;5018520;28;20262;-78
2021/01/30 07:32:48;;;;;;;4.27;3.63;;;1.80;99.90;;;;;;5014817;28;20215;-75
2021/01/30 07:35:24;;;;;;;5.40;3.80;;;1.60;99.90;;;;;;5011927;28;20203;-76
2021/01/30 07:37:57;;;;;;;4.77;3.90;;;1.80;99.90;;;;;;5024290;28;20666;-76
2021/01/30 07:40:48;;;;;;;6.53;3.80;;;1.70;99.90;;;;;;5014513;28;20592;-75
2021/01/30 07:43:25;;;;;;;6.00;4.20;;;1.80;99.90;;;;;;5032480;28;20209;-75
2021/01/30 07:46:22;;;;;;;5.57;4.00;;;1.70;99.90;;;;;;5020435;28;20196;-76
2021/01/30 07:48:59;;;;;;;5.80;4.23;;;1.70;99.90;;;;;;5015568;28;20521;-75
2021/01/30 07:51:35;;;;;;;6.23;4.20;;;1.70;99.90;;;;;;5013995;28;20217;-75
2021/01/30 07:54:03;;;;;;;5.03;3.70;;;1.70;99.90;;;;;;5014437;28;20285;-79
2021/01/30 07:56:56;;;;;;;5.57;4.33;;;1.80;99.90;;;;;;5018437;28;20211;-75
2021/01/30 07:59:31;;;;;;;6.67;4.77;;;1.70;99.90;;;;;;5031293;28;20226;-81
2021/01/30 08:02:22;;;;;;;7.13;4.40;;;1.70;99.90;;;;;;5010238;28;20212;-78
2021/01/30 08:05:10;;;;;;;5.07;3.77;;;1.70;99.90;;;;;;5018986;28;20211;-78
2021/01/30 08:07:45;;;;;;;4.10;3.60;;;1.60;99.90;;;;;;5019471;28;20197;-77
2021/01/30 08:10:40;;;;;;;6.57;4.10;;;1.80;99.90;;;;;;5012214;28;20660;-76
2021/01/30 08:13:30;;;;;;;5.90;3.83;;;1.80;99.90;;;;;;5019615;28;20239;-76
2021/01/30 08:16:16;;;;;;;6.80;4.33;;;1.80;99.90;;;;;;5014732;28;20663;-79
2021/01/30 08:18:48;;;;;;;4.07;3.20;;;1.80;99.90;;;;;;5015788;28;20602;-76
2021/01/30 08:21:26;;;;;;;5.83;4.03;;;1.70;99.90;;;;;;5027315;28;20228;-77
2021/01/30 08:24:07;;;;;;;5.53;3.97;;;1.70;99.90;;;;;;5032531;28;20193;-76
2021/01/30 08:27:11;;;;;;;4.10;3.63;;;1.70;99.90;;;;;;5029086;28;20568;-76
2021/01/30 08:29:42;;;;;;;5.27;4.00;;;1.70;99.90;;;;;;5017146;28;20238;-76
2021/01/30 08:32:24;;;;;;;4.50;3.33;;;1.80;99.90;;;;;;5043128;28;20257;-77
2021/01/30 08:35:19;;;;;;;5.93;3.83;;;1.70;99.90;;;;;;5020546;28;20201;-77
2021/01/30 08:38:29;;;;;;;5.07;3.57;;;1.70;99.90;;;;;;5004163;28;20215;-76
2021/01/30 08:41:20;;;;;;;5.40;3.13;;;1.70;99.90;;;;;;5019023;28;20229;-77
2021/01/30 08:43:49;;;;;;;5.60;3.70;;;1.70;99.90;;;;;;5036126;28;20202;-76
2021/01/30 08:46:34;;;;;;;5.10;3.60;;;1.70;99.90;;;;;;5016925;28;20212;-76
2021/01/30 08:49:15;;;;;;;6.83;3.43;;;1.80;99.90;;;;;;5011416;28;20247;-77
2021/01/30 08:51:44;;;;;;;4.63;3.27;;;1.70;99.90;;;;;;5030232;28;20557;-76
2021/01/30 08:54:25;;;;;;;4.93;3.63;;;1.70;99.90;;;;;;5016621;28;20205;-76
2021/01/30 08:56:52;;;;;;;6.03;2.70;;;1.70;99.90;;;;;;5013131;28;20282;-77
2021/01/30 09:00:00;;;;;;;5.70;3.47;;;1.70;99.90;;;;;;5006062;28;20564;-77
2021/01/30 09:02:28;;;;;;;3.63;2.87;;;1.80;99.90;;;;;;5014572;28;20227;-76
2021/01/30 09:05:09;;;;;;;5.87;3.43;;;1.80;99.90;;;;;;4986326;28;20246;-77
2021/01/30 09:07:42;;;;;;;3.27;2.60;;;1.80;99.90;;;;;;4995634;28;20636;-77
2021/01/30 09:10:28;;;;;;;4.80;3.23;;;1.80;99.90;;;;;;4981012;28;21839;-76
2021/01/30 09:13:13;;;;;;;3.73;3.17;;;1.80;99.90;;;;;;4993399;28;20252;-76
2021/01/30 09:15:42;;;;;;;4.47;3.10;;;1.70;99.90;;;;;;5014281;28;20225;-76
2021/01/30 09:18:27;;;;;;;3.93;3.10;;;1.80;99.90;;;;;;4989494;28;20237;-76
2021/01/30 09:21:16;;;;;;;3.97;3.30;;;1.80;99.90;;;;;;4984065;28;20260;-76
2021/01/30 09:24:19;;;;;;;5.37;3.63;;;1.70;99.90;;;;;;5009076;28;21042;-76
2021/01/30 09:27:12;;;;;;;4.97;3.33;;;1.80;99.90;;;;;;5004736;28;22015;-77
2021/01/30 09:29:39;;;;;;;4.93;3.17;;;1.80;99.90;;;;;;4990371;28;20243;-77
2021/01/30 09:32:08;;;;;;;4.67;3.50;;;1.80;99.90;;;;;;5006013;28;20260;-76
2021/01/30 09:34:46;;;;;;;4.43;3.27;;;1.80;99.90;;;;;;5021378;28;20205;-76
2021/01/30 09:37:31;;;;;;;6.53;3.97;;;1.90;99.90;;;;;;5018682;28;20270;-77
2021/01/30 09:39:59;;;;;;;5.03;3.50;;;2.00;99.90;;;;;;5017719;28;20201;-77
2021/01/30 09:42:27;;;;;;;5.83;3.80;;;1.90;99.90;;;;;;5026756;28;20212;-79
2021/01/30 09:45:15;;;;;;;4.20;3.30;;;1.90;99.90;;;;;;5018569;28;20214;-79
2021/01/30 09:47:53;;;;;;;4.20;3.33;;;1.90;99.90;;;;;;5019269;28;20258;-77
2021/01/30 09:50:29;;;;;;;4.93;3.70;;;1.90;99.90;;;;;;5018600;28;20694;-78
2021/01/30 09:52:59;;;;;;;5.63;4.00;;;1.90;99.90;;;;;;5046096;28;20522;-79
2021/01/30 09:55:26;;;;;;;4.77;3.37;;;1.90;99.90;;;;;;5019306;28;20757;-82
2021/01/30 09:58:01;;;;;;;5.70;3.47;;;2.00;99.90;;;;;;5020565;28;20260;-78
2021/01/30 10:00:34;;;;;;;5.53;4.20;;;1.90;99.90;;;;;;5018868;28;20699;-77
2021/01/30 10:03:26;;;;;;;5.77;4.00;;;1.90;99.90;;;;;;5012424;28;20216;-77
2021/01/30 10:05:54;;;;;;;5.43;3.60;;;1.90;99.90;;;;;;5014841;28;20805;-78
2021/01/30 10:08:27;;;;;;;4.83;3.47;;;1.90;99.90;;;;;;5006084;28;20291;-78
2021/01/30 10:11:15;;;;;;;6.37;4.27;;;1.90;99.90;;;;;;5012343;28;20592;-79
2021/01/30 10:13:46;;;;;;;5.20;3.10;;;1.90;99.90;;;;;;5013792;28;20320;-77
2021/01/30 10:16:21;;;;;;;6.00;4.20;;;2.00;99.90;;;;;;5016049;28;20237;-75
2021/01/30 10:19:19;;;;;;;5.97;3.63;;;2.00;99.90;;;;;;5048472;28;20602;-78
2021/01/30 10:21:45;;;;;;;4.57;3.30;;;2.00;99.90;;;;;;5017575;28;20633;-80
2021/01/30 10:24:26;;;;;;;4.90;3.40;;;2.00;99.90;;;;;;5004425;28;20279;-75
2021/01/30 10:27:09;;;;;;;4.50;3.07;;;2.00;99.90;;;;;;5016982;28;20496;-76
2021/01/30 10:29:35;;;;;;;6.50;3.63;;;2.00;99.90;;;;;;5023874;28;20244;-77
2021/01/30 10:32:09;;;;;;;6.03;3.87;;;2.00;99.90;;;;;;5003384;28;20287;-77
2021/01/30 10:34:41;;;;;;;4.70;3.00;;;2.00;99.90;;;;;;5011095;28;20634;-77
2021/01/30 10:37:16;;;;;;;4.03;3.60;;;2.10;99.90;;;;;;5017490;28;20255;-76
2021/01/30 10:40:03;;;;;;;4.00;2.70;;;2.20;99.90;;;;;;5048074;28;20205;-77
2021/01/30 10:42:33;;;;;;;3.67;2.80;;;2.20;99.90;;;;;;5019286;28;20216;-74
2021/01/30 10:45:12;;;;;;;4.60;3.27;;;2.20;99.90;;;;;;5019519;28;20267;-80
2021/01/30 10:47:39;;;;;;;4.90;3.40;;;2.30;99.90;;;;;;5031112;28;20758;-76
2021/01/30 10:50:15;;;;;;;4.80;3.37;;;2.20;99.90;;;;;;5008877;28;20223;-79
2021/01/30 10:52:42;;;;;;;3.67;2.67;;;2.20;99.90;;;;;;5013206;28;20305;-75
2021/01/30 10:55:24;;;;;;;3.67;3.03;;;2.20;99.90;;;;;;5015153;28;20665;-76
2021/01/30 10:57:52;;;;;;;4.50;3.00;;;2.20;99.90;;;;;;5013934;28;20661;-76
2021/01/30 11:00:28;;;;;;;4.50;3.20;;;2.20;99.90;;;;;;4999073;28;20256;-76
2021/01/30 11:02:55;;;;;;;4.73;2.97;;;2.20;99.90;;;;;;5012054;28;20213;-80
2021/01/30 11:05:29;;;;;;;2.97;2.20;;;2.20;99.90;;;;;;5018860;28;20402;-78
2021/01/30 11:08:03;;;;;;;4.77;3.30;;;2.20;99.90;;;;;;5015028;28;20611;-77
2021/01/30 11:10:38;;;;;;;3.63;2.77;;;2.20;99.90;;;;;;5013990;28;20205;-77
2021/01/30 11:13:24;;;;;;;3.70;3.10;;;2.30;99.90;;;;;;5022964;28;20671;-76
2021/01/30 11:16:04;;;;;;;3.67;2.47;;;2.40;99.90;;;;;;5016836;28;20220;-76
2021/01/30 11:18:34;;;;;;;2.93;2.40;;;2.40;99.90;;;;;;5013867;28;20224;-79
2021/01/30 11:21:03;;;;;;;4.70;3.00;;;2.40;99.90;;;;;;5009034;28;20232;-80
2021/01/30 11:23:38;;;;;;;3.97;2.70;;;2.30;99.90;;;;;;5016992;28;20258;-79
2021/01/30 11:26:19;;;;;;;3.27;2.50;;;2.40;99.90;;;;;;5020640;28;20234;-81
2021/01/30 11:28:48;;;;;;;4.00;2.80;;;2.40;99.90;;;;;;5016668;28;20658;-80
2021/01/30 11:31:16;;;;;;;6.17;3.00;;;2.50;99.90;;;;;;5034199;28;20311;-79
2021/01/30 11:33:44;;;;;;;4.10;2.87;;;2.40;99.90;;;;;;5023401;28;20212;-80
2021/01/30 11:36:16;;;;;;;3.53;2.63;;;2.50;99.90;;;;;;5002875;28;20201;-80
2021/01/30 11:38:44;;;;;;;3.90;2.87;;;2.60;99.90;;;;;;5013118;28;20205;-80
2021/01/30 11:41:11;;;;;;;3.80;2.53;;;2.70;99.90;;;;;;5017903;28;20201;-79
2021/01/30 11:43:37;;;;;;;3.93;2.53;;;2.60;99.90;;;;;;5006926;28;20692;-78
2021/01/30 11:46:04;;;;;;;8.93;2.27;;;2.60;99.90;;;;;;5005568;28;20197;-78
2021/01/30 11:48:30;;;;;;;4.13;2.40;;;2.70;99.90;;;;;;5012278;28;20672;-78
2021/01/30 11:50:57;;;;;;;4.10;2.43;;;2.70;99.90;;;;;;5005669;28;20204;-80
2021/01/30 11:53:26;;;;;;;4.97;2.90;;;2.70;99.90;;;;;;5019424;28;20261;-78
2021/01/30 11:55:54;;;;;;;4.47;2.30;;;2.80;99.90;;;;;;5013833;28;20205;-80
2021/01/30 11:58:20;;;;;;;3.17;2.30;;;2.70;99.90;;;;;;5013823;28;20189;-80
2021/01/30 12:00:47;;;;;;;3.07;2.47;;;2.70;99.90;;;;;;5000812;28;20203;-80
2021/01/30 12:03:24;;;;;;;3.27;2.60;;;2.70;99.90;;;;;;5018939;28;21717;-80
2021/01/30 12:05:51;;;;;;;3.57;2.47;;;2.80;99.90;;;;;;5005362;28;20601;-79
2021/01/30 12:08:18;;;;;;;4.03;2.83;;;2.80;99.90;;;;;;4996266;28;20617;-77
2021/01/30 12:10:48;;;;;;;4.20;3.00;;;2.80;99.90;;;;;;5008324;28;20280;-79
2021/01/30 12:13:14;;;;;;;5.83;2.63;;;2.90;99.90;;;;;;5019468;28;20209;-80
2021/01/30 12:15:41;;;;;;;4.03;2.83;;;2.90;99.90;;;;;;5002306;28;20208;-79
2021/01/30 12:18:13;;;;;;;4.60;2.37;;;2.80;99.90;;;;;;5002733;28;20197;-79
2021/01/30 12:20:41;;;;;;;6.10;2.90;;;2.80;99.90;;;;;;5013847;28;20676;-77
2021/01/30 12:23:08;;;;;;;5.27;2.97;;;2.80;99.90;;;;;;5020864;28;20369;-76
2021/01/30 12:25:35;;;;;;;3.67;2.73;;;2.90;99.90;;;;;;5017682;28;20200;-77
2021/01/30 12:28:02;;;;;;;3.83;2.70;;;3.00;99.90;;;;;;5018071;28;20790;-81
2021/01/30 12:30:33;;;;;;;3.83;2.70;;;2.90;99.90;;;;;;5004394;28;20636;-81
2021/01/30 12:33:01;;;;;;;3.40;2.63;;;2.90;99.90;;;;;;5014561;28;20559;-78
2021/01/30 12:35:30;;;;;;;4.10;2.83;;;3.10;99.90;;;;;;5009215;28;20288;-79
2021/01/30 12:37:57;;;;;;;3.77;2.73;;;3.10;99.90;;;;;;5000755;28;20193;-79
2021/01/30 12:40:28;;;;;;;2.90;2.57;;;3.00;99.90;;;;;;5013281;28;20201;-78
2021/01/30 12:42:56;;;;;;;3.47;2.57;;;3.00;99.90;;;;;;5028934;28;20644;-80
2021/01/30 12:45:22;;;;;;;4.20;3.10;;;3.10;99.90;;;;;;5009847;28;20227;-78
2021/01/30 12:47:49;;;;;;;4.03;3.20;;;3.20;99.90;;;;;;5009883;28;20522;-79
2021/01/30 12:50:21;;;;;;;3.60;2.73;;;3.10;99.90;;;;;;5000182;28;20927;-78
2021/01/30 12:52:48;;;;;;;5.00;3.00;;;3.10;99.90;;;;;;5013715;28;20213;-81
2021/01/30 12:55:15;;;;;;;5.07;3.00;;;3.20;99.90;;;;;;5015192;28;20215;-83
2021/01/30 12:57:41;;;;;;;3.17;2.57;;;3.30;99.90;;;;;;5036421;28;20289;-80
2021/01/30 13:00:13;;;;;;;4.23;2.80;;;3.20;99.90;;;;;;5012883;28;20348;-81
2021/01/30 13:02:39;;;;;;;2.97;2.37;;;3.30;99.90;;;;;;5013276;28;20205;-85
2021/01/30 13:05:08;;;;;;;5.07;2.70;;;3.40;99.90;;;;;;5016225;28;20209;-79
2021/01/30 13:07:34;;;;;;;4.70;2.87;;;3.20;99.90;;;;;;5017987;28;20762;-79
2021/01/30 13:10:00;;;;;;;3.77;2.80;;;3.30;99.90;;;;;;5002449;28;20934;-79
2021/01/30 13:12:27;;;;;;;5.33;2.93;;;3.30;99.90;;;;;;5013355;28;20224;-79
2021/01/30 13:14:53;;;;;;;3.03;2.47;;;3.30;99.90;;;;;;5023398;28;20728;-79
2021/01/30 13:17:20;;;;;;;4.30;2.83;;;3.30;99.90;;;;;;5004546;28;20745;-79
2021/01/30 13:19:46;;;;;;;3.17;2.47;;;3.40;99.90;;;;;;4990860;28;20213;-78
2021/01/30 13:22:12;;;;;;;3.67;2.83;;;3.30;99.90;;;;;;5020067;28;20558;-79
2021/01/30 13:24:39;;;;;;;7.87;3.10;;;3.40;99.90;;;;;;5017249;28;20197;-79
2021/01/30 13:27:05;;;;;;;4.97;2.67;;;3.40;99.90;;;;;;5002084;28;20217;-79
2021/01/30 13:29:32;;;;;;;2.70;2.37;;;3.40;99.90;;;;;;5003453;28;20239;-79
2021/01/30 13:32:01;;;;;;;4.90;2.77;;;3.40;99.90;;;;;;5014686;28;22130;-78
2021/01/30 13:34:27;;;;;;;3.13;2.60;;;3.20;99.90;;;;;;5024801;28;20213;-79